createdAt,value
2022-11-10T00:01:07.926Z,98547.03
2022-11-10T00:03:36.126Z,98543.50
2022-11-10T00:06:04.188Z,98552.34
2022-11-10T00:08:30.958Z,98563.72
2022-11-10T00:10:58.072Z,98558.78
2022-11-10T00:13:26.554Z,98566.81
2022-11-10T00:16:12.288Z,98573.06
2022-11-10T00:18:39.267Z,98573.19
2022-11-10T00:21:10.371Z,98573.25
2022-11-10T00:23:36.987Z,98576.00
2022-11-10T00:26:04.609Z,98588.47
2022-11-10T00:28:32.561Z,98591.44
2022-11-10T00:30:59.356Z,98587.72
2022-11-10T00:33:26.067Z,98579.09
2022-11-10T00:35:52.645Z,98580.13
2022-11-10T00:38:19.270Z,98592.25
2022-11-10T00:40:45.902Z,98587.28
2022-11-10T00:43:12.438Z,98588.53
2022-11-10T00:45:42.523Z,98589.47
2022-11-10T00:48:09.168Z,98590.31
2022-11-10T00:50:36.016Z,98592.03
2022-11-10T00:53:02.691Z,98589.56
2022-11-10T00:55:29.378Z,98605.13
2022-11-10T00:57:56.200Z,98605.00
2022-11-10T01:00:23.012Z,98600.66
2022-11-10T01:02:49.587Z,98612.34
2022-11-10T01:05:16.274Z,98615.75
2022-11-10T01:07:42.981Z,98610.78
2022-11-10T01:10:09.672Z,98611.47
2022-11-10T01:12:36.458Z,98631.63
2022-11-10T01:15:03.451Z,98622.88
2022-11-10T01:17:30.906Z,98626.34
2022-11-10T01:19:57.619Z,98620.84
2022-11-10T01:22:24.460Z,98631.72
2022-11-10T01:24:51.123Z,98638.84
2022-11-10T01:27:17.894Z,98643.28
2022-11-10T01:29:44.675Z,98644.03
2022-11-10T01:32:11.394Z,98645.16
2022-11-10T01:34:38.097Z,98653.00
2022-11-10T01:37:04.730Z,98657.31
2022-11-10T01:39:31.366Z,98659.19
2022-11-10T01:41:58.036Z,98664.63
2022-11-10T01:44:26.032Z,98670.72
2022-11-10T01:46:52.733Z,98674.34
2022-11-10T01:49:28.275Z,98675.19
2022-11-10T01:52:08.050Z,98661.97
2022-11-10T01:54:39.060Z,98664.63
2022-11-10T01:57:10.288Z,98664.72
2022-11-10T01:59:42.472Z,98662.13
2022-11-10T02:02:16.993Z,98659.47
2022-11-10T02:04:43.764Z,98666.56
2022-11-10T02:07:11.344Z,98662.19
2022-11-10T02:09:38.132Z,98676.22
2022-11-10T02:12:05.888Z,98682.50
2022-11-10T02:14:32.673Z,98684.25
2022-11-10T02:16:59.432Z,98684.22
2022-11-10T02:19:26.861Z,98685.28
2022-11-10T02:21:53.528Z,98688.69
2022-11-10T02:24:20.330Z,98701.88
2022-11-10T02:26:52.891Z,98692.25
2022-11-10T02:29:20.440Z,98698.53
2022-11-10T02:31:47.108Z,98707.47
2022-11-10T02:34:13.961Z,98702.06
2022-11-10T02:36:40.798Z,98709.94
2022-11-10T02:39:07.487Z,98716.25
2022-11-10T02:41:34.064Z,98710.06
2022-11-10T02:44:01.090Z,98724.09
2022-11-10T02:46:27.857Z,98711.84
2022-11-10T02:48:54.377Z,98720.69
2022-11-10T02:51:21.086Z,98723.41
2022-11-10T02:53:47.793Z,98726.06
2022-11-10T02:56:14.492Z,98722.69
2022-11-10T02:58:41.197Z,98721.00
2022-11-10T03:01:07.958Z,98714.84
2022-11-10T03:03:34.804Z,98719.13
2022-11-10T03:06:02.411Z,98722.50
2022-11-10T03:08:29.019Z,98726.06
2022-11-10T03:10:56.790Z,98726.72
2022-11-10T03:13:25.233Z,98734.59
2022-11-10T03:15:52.231Z,98731.97
2022-11-10T03:18:19.014Z,98725.75
2022-11-10T03:20:48.194Z,98740.81
2022-11-10T03:23:15.920Z,98744.31
2022-11-10T03:25:43.271Z,98742.00
2022-11-10T03:28:10.763Z,98750.91
2022-11-10T03:30:38.571Z,98746.53
2022-11-10T03:33:05.721Z,98752.75
2022-11-10T03:35:32.385Z,98753.69
2022-11-10T03:37:59.109Z,98764.19
2022-11-10T03:40:25.716Z,98757.97
2022-11-10T03:42:52.454Z,98759.72
2022-11-10T03:45:19.413Z,98767.56
2022-11-10T03:47:47.710Z,98765.06
2022-11-10T03:50:15.615Z,98777.22
2022-11-10T03:52:44.980Z,98765.09
2022-11-10T03:55:14.468Z,98769.38
2022-11-10T03:57:41.409Z,98771.84
2022-11-10T04:00:09.808Z,98770.19
2022-11-10T04:02:37.300Z,98779.75
2022-11-10T04:05:24.079Z,98777.25
2022-11-10T04:08:17.763Z,98777.16
2022-11-10T04:10:44.975Z,98794.50
2022-11-10T04:13:30.655Z,98800.66
2022-11-10T04:15:57.535Z,98808.50
2022-11-10T04:18:27.133Z,98808.44
2022-11-10T04:20:59.185Z,98806.78
2022-11-10T04:23:36.390Z,98814.69
2022-11-10T04:26:29.374Z,98810.31
2022-11-10T04:28:58.705Z,98820.69
2022-11-10T04:31:27.215Z,98814.63
2022-11-10T04:33:55.479Z,98818.16
2022-11-10T04:36:25.084Z,98807.53
2022-11-10T04:38:52.266Z,98817.16
2022-11-10T04:41:19.189Z,98819.78
2022-11-10T04:43:45.781Z,98823.38
2022-11-10T04:46:20.663Z,98825.06
2022-11-10T04:48:47.398Z,98822.38
2022-11-10T04:51:14.928Z,98829.59
2022-11-10T04:53:41.545Z,98839.13
2022-11-10T04:56:13.867Z,98840.03
2022-11-10T04:58:40.598Z,98845.09
2022-11-10T05:01:07.437Z,98851.28
2022-11-10T05:03:34.036Z,98854.66
2022-11-10T05:06:00.613Z,98866.06
2022-11-10T05:08:27.346Z,98859.97
2022-11-10T05:10:53.951Z,98864.38
2022-11-10T05:13:20.744Z,98873.09
2022-11-10T05:15:47.673Z,98870.50
2022-11-10T05:18:14.639Z,98876.59
2022-11-10T05:20:41.397Z,98874.75
2022-11-10T05:23:26.776Z,98869.69
2022-11-10T05:25:53.336Z,98869.53
2022-11-10T05:28:20.117Z,98869.47
2022-11-10T05:30:46.801Z,98876.69
2022-11-10T05:33:13.928Z,98881.16
2022-11-10T05:35:41.393Z,98891.66
2022-11-10T05:38:08.681Z,98896.06
2022-11-10T05:40:35.466Z,98896.00
2022-11-10T05:43:02.431Z,98907.31
2022-11-10T05:45:29.366Z,98920.47
2022-11-10T05:47:56.679Z,98929.31
2022-11-10T05:50:24.271Z,98931.88
2022-11-10T05:52:53.362Z,98944.22
2022-11-10T05:55:23.881Z,98942.38
2022-11-10T05:57:52.477Z,98935.34
2022-11-10T06:00:21.963Z,98944.22
2022-11-10T06:03:03.087Z,98951.19
2022-11-10T06:05:35.453Z,98960.81
2022-11-10T06:08:04.139Z,98967.78
2022-11-10T06:10:32.194Z,98963.38
2022-11-10T06:12:59.418Z,98965.97
2022-11-10T06:15:27.146Z,98971.25
2022-11-10T06:17:54.170Z,98980.94
2022-11-10T06:20:21.538Z,98977.53
2022-11-10T06:22:59.645Z,98981.94
2022-11-10T06:25:26.663Z,98988.81
2022-11-10T06:27:53.960Z,99005.53
2022-11-10T06:30:21.034Z,99004.66
2022-11-10T06:32:47.796Z,99001.09
2022-11-10T06:35:14.468Z,99008.94
2022-11-10T06:37:41.420Z,99005.41
2022-11-10T06:40:10.842Z,99011.53
2022-11-10T06:42:37.428Z,99011.41
2022-11-10T06:45:04.642Z,99019.19
2022-11-10T06:47:31.655Z,99033.22
2022-11-10T06:49:58.354Z,99048.84
2022-11-10T06:52:25.025Z,99049.75
2022-11-10T06:54:51.623Z,99059.25
2022-11-10T06:57:18.268Z,99061.84
2022-11-10T06:59:44.913Z,99067.91
2022-11-10T07:02:14.626Z,99075.78
2022-11-10T07:04:43.029Z,99070.59
2022-11-10T07:07:10.748Z,99075.78
2022-11-10T07:09:38.123Z,99078.41
2022-11-10T07:12:05.200Z,99081.03
2022-11-10T07:14:31.872Z,99091.34
2022-11-10T07:16:58.444Z,99104.38
2022-11-10T07:19:25.018Z,99091.16
2022-11-10T07:21:51.962Z,99105.00
2022-11-10T07:24:18.555Z,99107.44
2022-11-10T07:26:45.558Z,99106.47
2022-11-10T07:29:12.273Z,99116.88
2022-11-10T07:31:38.873Z,99120.31
2022-11-10T07:34:05.587Z,99117.50
2022-11-10T07:36:32.204Z,99107.84
2022-11-10T07:38:58.958Z,99112.97
2022-11-10T07:41:25.732Z,99113.72
2022-11-10T07:43:52.396Z,99112.66
2022-11-10T07:46:19.133Z,99109.13
2022-11-10T07:48:45.757Z,99108.28
2022-11-10T07:51:12.374Z,99118.13
2022-11-10T07:53:40.007Z,99137.38
2022-11-10T07:56:07.131Z,99133.97
2022-11-10T07:58:34.376Z,99134.09
2022-11-10T08:01:01.995Z,99136.72
2022-11-10T08:03:28.663Z,99138.56
2022-11-10T08:05:56.120Z,99142.94
2022-11-10T08:08:22.771Z,99154.41
2022-11-10T08:10:49.399Z,99162.16
2022-11-10T08:13:16.582Z,99169.66
2022-11-10T08:15:43.273Z,99174.47
2022-11-10T08:18:22.651Z,99178.75
2022-11-10T08:20:49.618Z,99176.81
2022-11-10T08:23:17.022Z,99195.91
2022-11-10T08:25:44.223Z,99195.59
2022-11-10T08:28:14.390Z,99207.72
2022-11-10T08:30:42.386Z,99216.16
2022-11-10T08:33:11.549Z,99216.94
2022-11-10T08:35:40.633Z,99230.69
2022-11-10T08:38:12.403Z,99220.09
2022-11-10T08:40:40.477Z,99235.53
2022-11-10T08:43:08.013Z,99232.53
2022-11-10T08:45:39.404Z,99229.13
2022-11-10T08:48:12.102Z,99223.16
2022-11-10T08:50:39.256Z,99230.88
2022-11-10T08:53:12.678Z,99233.03
2022-11-10T08:55:40.365Z,99228.47
2022-11-10T08:58:08.863Z,99241.28
2022-11-10T09:00:35.532Z,99232.53
2022-11-10T09:03:14.483Z,99237.16
2022-11-10T09:05:41.913Z,99244.66
2022-11-10T09:08:09.536Z,99242.75
2022-11-10T09:10:39.111Z,99247.88
2022-11-10T09:13:06.580Z,99259.91
2022-11-10T09:15:34.596Z,99258.16
2022-11-10T09:18:03.035Z,99264.28
2022-11-10T09:20:31.432Z,99272.28
2022-11-10T09:23:04.826Z,99279.38
2022-11-10T09:25:31.376Z,99278.69
2022-11-10T09:27:58.159Z,99284.91
2022-11-10T09:30:25.538Z,99291.53
2022-11-10T09:32:59.351Z,99291.88
2022-11-10T09:35:26.844Z,99294.63
2022-11-10T09:37:53.519Z,99290.09
2022-11-10T09:40:50.777Z,99287.09
2022-11-10T09:43:32.291Z,99272.34
2022-11-10T09:46:03.737Z,99274.47
2022-11-10T09:48:33.642Z,99276.34
2022-11-10T09:51:08.998Z,99287.81
2022-11-10T09:53:38.003Z,99286.47
2022-11-10T09:56:06.611Z,99279.47
2022-11-10T09:58:45.035Z,99289.22
2022-11-10T10:01:33.587Z,99289.53
2022-11-10T10:04:21.697Z,99294.72
2022-11-10T10:07:17.433Z,99294.56
2022-11-10T10:09:59.921Z,99291.00
2022-11-10T10:12:39.692Z,99299.50
2022-11-10T10:15:45.079Z,99305.06
2022-11-10T10:18:27.123Z,99305.06
2022-11-10T10:21:31.421Z,99297.00
2022-11-10T10:24:14.044Z,99302.41
2022-11-10T10:26:52.956Z,99296.31
2022-11-10T10:29:25.550Z,99294.53
2022-11-10T10:31:53.433Z,99304.69
2022-11-10T10:34:30.340Z,99305.69
2022-11-10T10:36:57.321Z,99295.59
2022-11-10T10:39:52.239Z,99299.44
2022-11-10T10:42:38.195Z,99307.75
2022-11-10T10:45:26.912Z,99304.13
2022-11-10T10:47:55.801Z,99304.88
2022-11-10T10:50:28.435Z,99308.06
2022-11-10T10:53:16.104Z,99307.47
2022-11-10T10:55:59.890Z,99312.66
2022-11-10T10:58:29.696Z,99314.13
2022-11-10T11:01:06.010Z,99312.16
2022-11-10T11:03:53.097Z,99305.53
2022-11-10T11:06:27.840Z,99290.03
2022-11-10T11:09:15.350Z,99303.44
2022-11-10T11:11:44.791Z,99305.66
2022-11-10T11:14:26.604Z,99308.16
2022-11-10T11:16:55.348Z,99308.13
2022-11-10T11:19:25.904Z,99317.38
2022-11-10T11:21:58.371Z,99315.94
2022-11-10T11:24:34.773Z,99308.19
2022-11-10T11:27:05.351Z,99309.38
2022-11-10T11:30:02.071Z,99312.97
2022-11-10T11:32:55.920Z,99315.19
2022-11-10T11:35:58.178Z,99324.38
2022-11-10T11:38:32.658Z,99339.97
2022-11-10T11:41:29.752Z,99341.56
2022-11-10T11:44:08.815Z,99341.69
2022-11-10T11:46:44.942Z,99346.88
2022-11-10T11:50:03.757Z,99345.56
2022-11-10T11:53:14.940Z,99348.34
2022-11-10T11:56:24.399Z,99355.41
2022-11-10T11:59:28.990Z,99353.72
2022-11-10T12:02:02.901Z,99348.31
2022-11-10T12:04:40.821Z,99358.91
2022-11-10T12:07:10.065Z,99363.66
2022-11-10T12:09:49.654Z,99361.78
2022-11-10T12:12:30.530Z,99375.59
2022-11-10T12:15:09.187Z,99367.09
2022-11-10T12:18:00.843Z,99359.59
2022-11-10T12:20:49.645Z,99352.13
2022-11-10T12:23:27.725Z,99354.09
2022-11-10T12:26:12.270Z,99355.13
2022-11-10T12:28:47.585Z,99358.13
2022-11-10T12:31:20.763Z,99356.19
2022-11-10T12:33:57.435Z,99358.38
2022-11-10T12:36:27.756Z,99365.50
2022-11-10T12:39:07.287Z,99363.88
2022-11-10T12:41:43.597Z,99359.66
2022-11-10T12:44:26.772Z,99363.75
2022-11-10T12:46:57.398Z,99357.44
2022-11-10T12:49:32.534Z,99370.84
2022-11-10T12:52:12.719Z,99352.84
2022-11-10T12:54:46.713Z,99372.28
2022-11-10T12:57:27.992Z,99374.41
2022-11-10T13:00:29.052Z,99388.47
2022-11-10T13:02:57.201Z,99392.41
2022-11-10T13:05:29.077Z,99396.84
2022-11-10T13:08:27.613Z,99401.81
2022-11-10T13:11:06.202Z,99406.09
2022-11-10T13:13:58.168Z,99415.03
2022-11-10T13:16:38.990Z,99421.13
2022-11-10T13:19:08.134Z,99413.00
2022-11-10T13:21:53.016Z,99406.84
2022-11-10T13:24:30.599Z,99414.88
2022-11-10T13:27:02.303Z,99413.31
2022-11-10T13:29:36.382Z,99416.00
2022-11-10T13:32:15.313Z,99408.84
2022-11-10T13:34:43.987Z,99408.06
2022-11-10T13:37:29.467Z,99406.03
2022-11-10T13:40:24.494Z,99407.16
2022-11-10T13:42:56.874Z,99410.75
2022-11-10T13:45:34.666Z,99410.53
2022-11-10T13:48:18.555Z,99408.78
2022-11-10T13:51:14.974Z,99419.50
2022-11-10T13:54:00.004Z,99416.78
2022-11-10T13:56:45.180Z,99422.19
2022-11-10T13:59:21.516Z,99425.16
2022-11-10T14:01:48.698Z,99431.13
2022-11-10T14:04:39.432Z,99437.41
2022-11-10T14:07:16.933Z,99436.41
2022-11-10T14:09:51.299Z,99439.94
2022-11-10T14:12:43.121Z,99442.00
2022-11-10T14:15:12.552Z,99450.00
2022-11-10T14:17:59.033Z,99450.69
2022-11-10T14:20:43.576Z,99449.25
2022-11-10T14:23:21.563Z,99450.16
2022-11-10T14:25:56.041Z,99445.84
2022-11-10T14:28:27.780Z,99448.41
2022-11-10T14:30:55.930Z,99446.09
2022-11-10T14:33:24.974Z,99447.97
2022-11-10T14:36:08.925Z,99455.03
2022-11-10T14:38:44.021Z,99450.72
2022-11-10T14:41:18.132Z,99455.00
2022-11-10T14:43:44.811Z,99457.66
2022-11-10T14:46:14.953Z,99457.91
2022-11-10T14:48:41.685Z,99456.22
2022-11-10T14:51:18.815Z,99453.69
2022-11-10T14:53:50.455Z,99460.63
2022-11-10T14:56:21.023Z,99460.72
2022-11-10T14:58:49.905Z,99469.50
2022-11-10T15:01:27.079Z,99469.75
2022-11-10T15:03:54.143Z,99476.00
2022-11-10T15:06:21.675Z,99478.72
2022-11-10T15:08:48.410Z,99482.31
2022-11-10T15:11:47.362Z,99481.44
2022-11-10T15:14:56.976Z,99497.38
2022-11-10T15:17:44.798Z,99495.69
2022-11-10T15:20:28.042Z,99500.16
2022-11-10T15:22:58.713Z,99503.81
2022-11-10T15:25:33.066Z,99501.25
2022-11-10T15:28:21.621Z,99509.28
2022-11-10T15:30:51.391Z,99505.03
2022-11-10T15:33:24.260Z,99514.72
2022-11-10T15:35:51.048Z,99513.97
2022-11-10T15:38:27.069Z,99518.34
2022-11-10T15:41:06.663Z,99515.81
2022-11-10T15:43:33.299Z,99515.84
2022-11-10T15:46:01.131Z,99526.53
2022-11-10T15:48:37.271Z,99529.16
2022-11-10T15:51:04.100Z,99531.78
2022-11-10T15:53:39.100Z,99530.16
2022-11-10T15:56:07.656Z,99527.59
2022-11-10T15:58:34.381Z,99533.00
2022-11-10T16:01:01.875Z,99539.13
2022-11-10T16:03:28.555Z,99544.47
2022-11-10T16:05:55.228Z,99541.88
2022-11-10T16:08:23.049Z,99534.13
2022-11-10T16:10:53.051Z,99541.09
2022-11-10T16:13:26.615Z,99548.94
2022-11-10T16:15:54.099Z,99560.47
2022-11-10T16:18:26.288Z,99560.50
2022-11-10T16:20:53.150Z,99561.38
2022-11-10T16:23:20.385Z,99559.69
2022-11-10T16:25:50.329Z,99561.41
2022-11-10T16:28:23.773Z,99561.44
2022-11-10T16:30:51.377Z,99570.22
2022-11-10T16:33:20.501Z,99567.63
2022-11-10T16:35:51.009Z,99576.38
2022-11-10T16:38:21.760Z,99568.53
2022-11-10T16:40:54.487Z,99579.94
2022-11-10T16:43:21.337Z,99585.22
2022-11-10T16:45:50.190Z,99587.88
2022-11-10T16:48:21.074Z,99591.41
2022-11-10T16:50:51.892Z,99580.88
2022-11-10T16:53:31.124Z,99580.91
2022-11-10T16:55:58.493Z,99573.94
2022-11-10T16:58:27.373Z,99582.69
2022-11-10T17:00:58.637Z,99582.69
2022-11-10T17:03:34.430Z,99581.81
2022-11-10T17:06:02.566Z,99587.97
2022-11-10T17:08:31.918Z,99584.47
2022-11-10T17:10:58.980Z,99591.44
2022-11-10T17:13:26.249Z,99589.72
2022-11-10T17:15:56.215Z,99586.19
2022-11-10T17:18:24.883Z,99582.66
2022-11-10T17:20:52.761Z,99593.09
2022-11-10T17:23:24.348Z,99594.81
2022-11-10T17:25:54.114Z,99589.59
2022-11-10T17:28:21.029Z,99604.47
2022-11-10T17:30:47.797Z,99603.53
2022-11-10T17:33:14.766Z,99612.28
2022-11-10T17:35:46.510Z,99609.63
2022-11-10T17:38:21.272Z,99618.38
2022-11-10T17:40:48.217Z,99613.16
2022-11-10T17:43:15.204Z,99607.03
2022-11-10T17:45:41.860Z,99600.88
2022-11-10T17:48:09.075Z,99594.75
2022-11-10T17:50:37.453Z,99594.75
2022-11-10T17:53:15.564Z,99601.75
2022-11-10T17:55:42.317Z,99611.41
2022-11-10T17:58:12.100Z,99617.53
2022-11-10T18:00:38.841Z,99622.75
2022-11-10T18:03:08.819Z,99625.34
2022-11-10T18:05:38.287Z,99620.97
2022-11-10T18:08:05.028Z,99619.22
2022-11-10T18:10:31.676Z,99628.00
2022-11-10T18:12:58.278Z,99628.91
2022-11-10T18:15:24.959Z,99620.16
2022-11-10T18:17:51.552Z,99627.97
2022-11-10T18:20:18.126Z,99623.56
2022-11-10T18:22:44.746Z,99622.72
2022-11-10T18:25:11.483Z,99622.69
2022-11-10T18:27:38.167Z,99616.56
2022-11-10T18:30:05.322Z,99615.72
2022-11-10T18:32:32.102Z,99624.50
2022-11-10T18:34:58.762Z,99624.53
2022-11-10T18:37:25.602Z,99617.50
2022-11-10T18:39:52.235Z,99614.03
2022-11-10T18:42:18.953Z,99624.56
2022-11-10T18:44:45.524Z,99626.28
2022-11-10T18:47:13.089Z,99614.03
2022-11-10T18:49:39.766Z,99615.81
2022-11-10T18:52:06.534Z,99615.78
2022-11-10T18:54:33.476Z,99613.19
2022-11-10T18:57:00.026Z,99618.41
2022-11-10T18:59:26.694Z,99620.13
2022-11-10T19:01:54.009Z,99627.13
2022-11-10T19:04:20.994Z,99618.38
2022-11-10T19:06:47.580Z,99625.41
2022-11-10T19:09:14.331Z,99630.66
2022-11-10T19:11:41.015Z,99625.41
2022-11-10T19:14:07.592Z,99615.78
2022-11-10T19:16:34.290Z,99612.28
2022-11-10T19:19:00.963Z,99617.53
2022-11-10T19:21:27.929Z,99620.16
2022-11-10T19:23:58.993Z,99621.94
2022-11-10T19:26:26.864Z,99622.81
2022-11-10T19:28:55.632Z,99627.22
2022-11-10T19:31:23.880Z,99617.56
2022-11-10T19:33:53.731Z,99622.78
2022-11-10T19:36:23.055Z,99633.31
2022-11-10T19:38:50.036Z,99633.28
2022-11-10T19:41:20.711Z,99635.03
2022-11-10T19:43:47.880Z,99646.44
2022-11-10T19:46:20.520Z,99638.59
2022-11-10T19:48:47.317Z,99638.56
2022-11-10T19:51:16.274Z,99636.84
2022-11-10T19:53:44.882Z,99641.19
2022-11-10T19:56:17.291Z,99654.34
2022-11-10T19:58:44.004Z,99650.88
2022-11-10T20:01:12.356Z,99650.00
2022-11-10T20:03:39.772Z,99654.34
2022-11-10T20:06:19.352Z,99650.88
2022-11-10T20:08:46.456Z,99649.13
2022-11-10T20:11:16.453Z,99656.13
2022-11-10T20:13:43.463Z,99670.13
2022-11-10T20:16:11.914Z,99663.13
2022-11-10T20:18:39.999Z,99668.38
2022-11-10T20:21:08.209Z,99678.00
2022-11-10T20:23:34.845Z,99680.63
2022-11-10T20:26:11.062Z,99678.91
2022-11-10T20:28:39.597Z,99675.41
2022-11-10T20:31:10.379Z,99681.53
2022-11-10T20:33:37.750Z,99684.16
2022-11-10T20:36:20.155Z,99689.41
2022-11-10T20:38:48.798Z,99691.16
2022-11-10T20:41:21.655Z,99703.41
2022-11-10T20:43:49.141Z,99706.06
2022-11-10T20:46:40.221Z,99710.44
2022-11-10T20:49:05.556Z,99710.41
2022-11-10T20:51:32.284Z,99715.66
2022-11-10T20:54:00.619Z,99716.56
2022-11-10T20:56:29.855Z,99699.06
2022-11-10T20:58:57.746Z,99702.56
2022-11-10T21:01:25.102Z,99689.44
2022-11-10T21:03:52.230Z,99692.94
2022-11-10T21:06:18.979Z,99698.19
2022-11-10T21:08:46.955Z,99705.16
2022-11-10T21:11:33.799Z,99700.81
2022-11-10T21:14:02.285Z,99702.53
2022-11-10T21:16:29.080Z,99710.41
2022-11-10T21:18:56.919Z,99712.16
2022-11-10T21:21:34.718Z,99712.16
2022-11-10T21:24:06.196Z,99708.66
2022-11-10T21:26:34.428Z,99718.28
2022-11-10T21:29:02.513Z,99714.78
2022-11-10T21:31:30.733Z,99718.25
2022-11-10T21:33:58.461Z,99721.75
2022-11-10T21:36:29.453Z,99729.63
2022-11-10T21:38:57.147Z,99721.78
2022-11-10T21:41:24.013Z,99734.88
2022-11-10T21:43:50.693Z,99722.63
2022-11-10T21:46:17.767Z,99731.41
2022-11-10T21:48:45.336Z,99734.00
2022-11-10T21:51:14.186Z,99734.00
2022-11-10T21:53:41.935Z,99727.91
2022-11-10T21:56:10.517Z,99735.78
2022-11-10T21:58:37.510Z,99743.63
2022-11-10T22:01:07.567Z,99746.25
2022-11-10T22:03:34.923Z,99745.38
2022-11-10T22:06:10.347Z,99750.63
2022-11-10T22:08:38.532Z,99743.59
2022-11-10T22:11:25.020Z,99745.34
2022-11-10T22:14:10.182Z,99739.22
2022-11-10T22:17:05.684Z,99734.81
2022-11-10T22:19:33.636Z,99739.97
2022-11-10T22:22:03.742Z,99739.97
2022-11-10T22:24:31.027Z,99745.16
2022-11-10T22:27:03.516Z,99749.53
2022-11-10T22:29:32.348Z,99751.25
2022-11-10T22:32:02.585Z,99749.47
2022-11-10T22:34:29.452Z,99746.84
2022-11-10T22:36:56.191Z,99740.59
2022-11-10T22:39:23.042Z,99727.47
2022-11-10T22:42:08.245Z,99722.19
2022-11-10T22:44:34.880Z,99733.47
2022-11-10T22:47:02.122Z,99724.69
2022-11-10T22:49:28.642Z,99729.97
2022-11-10T22:51:55.628Z,99722.94
2022-11-10T22:54:23.895Z,99734.22
2022-11-10T22:56:51.607Z,99723.69
2022-11-10T22:59:19.307Z,99726.31
2022-11-10T23:01:46.463Z,99730.63
2022-11-10T23:04:16.058Z,99732.28
2022-11-10T23:06:43.113Z,99736.66
2022-11-10T23:09:09.694Z,99736.66
2022-11-10T23:11:36.476Z,99729.66
2022-11-10T23:14:03.138Z,99720.88
2022-11-10T23:16:32.753Z,99720.88
2022-11-10T23:18:59.687Z,99721.66
2022-11-10T23:21:28.952Z,99718.13
2022-11-10T23:23:56.177Z,99730.25
2022-11-10T23:26:26.589Z,99733.66
2022-11-10T23:28:54.480Z,99749.28
2022-11-10T23:31:24.111Z,99744.91
2022-11-10T23:33:53.527Z,99758.00
2022-11-10T23:36:21.786Z,99765.91
2022-11-10T23:38:48.857Z,99764.25
2022-11-10T23:41:23.629Z,99777.31
2022-11-10T23:43:50.351Z,99763.28
2022-11-10T23:46:17.585Z,99770.25
2022-11-10T23:48:44.513Z,99773.75
2022-11-10T23:51:13.101Z,99775.50
2022-11-10T23:53:40.395Z,99767.47
2022-11-10T23:56:11.179Z,99778.72
2022-11-10T23:58:38.096Z,99781.41
